Date,TemperatureHighF,TemperatureAvgF,TemperatureLowF,DewpointHighF,DewpointAvgF,DewpointLowF,HumidityHigh,HumidityAvg,HumidityLow,PressureMaxIn,PressureMinIn,WindSpeedMaxMPH,WindSpeedAvgMPH,GustSpeedMaxMPH,PrecipitationSumIn
2013-2-1,69,53,41,44,34,26,74,51,21,30.20,30.06,13,4,0,0.00
2013-2-2,71,55,43,46,40,36,94,61,31,30.16,29.98,7,2,0,0.00
2013-2-3,68,56,44,52,43,35,99,66,35,30.03,29.88,12,5,0,0.00
2013-2-4,70,55,44,46,40,33,99,64,28,29.97,29.88,7,2,0,0.00
2013-2-5,76,59,43,54,46,39,95,66,39,29.94,29.83,9,2,0,0.00
2013-2-6,77,66,58,64,58,53,89,77,56,29.96,29.86,7,2,0,0.00
2013-2-7,80,70,61,65,62,60,99,78,55,29.91,29.68,10,2,0,0.02
2013-2-8,77,67,58,65,60,56,98,79,51,29.91,29.69,10,5,0,0.00
2013-2-9,73,61,52,57,54,52,99,79,52,30.05,29.90,10,5,0,0.00
2013-2-10,78,65,54,60,56,52,93,74,49,30.11,29.99,13,6,0,0.00
2013-2-11,83,70,58,63,61,58,99,75,47,30.04,29.89,7,2,0,0.00
2013-2-12,85,72,62,69,64,60,99,78,48,29.93,29.74,6,2,0,0.00
2013-2-13,83,70,62,70,67,60,96,89,63,29.78,29.65,8,4,0,0.35
2013-2-14,66,60,54,62,58,54,99,93,77,29.88,29.74,9,3,0,0.38
2013-2-15,70,57,50,56,52,49,99,85,53,29.92,29.78,9,3,0,0.00
2013-2-16,66,55,47,53,44,30,99,68,40,29.97,29.73,19,7,0,0.00
2013-2-17,54,43,34,34,22,12,93,47,18,30.19,29.97,13,5,0,0.00
2013-2-18,67,51,33,46,34,19,83,56,31,30.23,30.06,11,4,0,0.00
2013-2-19,78,63,46,57,52,45,99,72,43,30.07,29.88,9,2,0,0.00
2013-2-20,73,63,54,60,54,49,95,75,54,29.99,29.85,8,3,0,0.00
2013-2-21,85,66,51,65,58,50,97,76,44,29.96,29.82,7,2,0,0.00
2013-2-22,88,73,61,69,65,60,99,79,43,29.92,29.80,9,2,0,0.00
2013-2-23,87,75,67,70,67,62,98,78,46,29.83,29.68,10,2,0,0.00
2013-2-24,77,70,64,71,67,62,97,90,76,29.79,29.68,7,3,0,0.00
2013-2-25,86,73,64,72,66,62,99,82,52,29.74,29.58,5,2,0,0.00
2013-2-26,73,70,67,72,68,66,98,95,92,29.62,29.53,6,3,0,0.12
2013-2-27,74,65,56,53,50,49,79,61,44,29.79,29.71,9,6,0,0.00
2013-2-28,72,60,51,55,50,42,94,70,35,29.84,29.70,14,5,0,0.00